createdAt,value
2022-11-29T00:04:15.567Z,4.88
2022-11-29T00:09:23.271Z,4.87
2022-11-29T00:14:30.110Z,4.87
2022-11-29T00:19:36.877Z,4.91
2022-11-29T00:24:44.731Z,4.97
2022-11-29T00:29:49.829Z,4.87
2022-11-29T00:34:59.241Z,4.99
2022-11-29T00:40:08.156Z,4.81
2022-11-29T00:45:14.070Z,4.86
2022-11-29T00:50:19.154Z,4.73
2022-11-29T00:55:27.528Z,4.68
2022-11-29T01:00:32.660Z,4.69
2022-11-29T01:05:38.151Z,4.92
2022-11-29T01:10:46.104Z,4.77
2022-11-29T01:15:58.620Z,4.77
2022-11-29T01:21:06.002Z,4.83
2022-11-29T01:26:17.737Z,4.79
2022-11-29T01:31:24.708Z,4.84
2022-11-29T01:36:29.708Z,4.85
2022-11-29T01:41:39.276Z,4.81
2022-11-29T01:46:45.843Z,4.80
2022-11-29T01:51:54.525Z,4.83
2022-11-29T01:57:02.508Z,4.78
2022-11-29T02:02:13.112Z,4.78
2022-11-29T02:07:18.728Z,4.85
2022-11-29T02:12:35.384Z,4.79
2022-11-29T02:17:50.009Z,4.82
2022-11-29T02:23:02.172Z,4.83
2022-11-29T02:28:40.947Z,4.80
2022-11-29T02:34:03.696Z,4.76
2022-11-29T02:39:41.246Z,4.77
2022-11-29T02:45:14.124Z,4.77
2022-11-29T02:50:38.279Z,4.68
2022-11-29T02:55:49.646Z,4.70
2022-11-29T03:01:01.801Z,4.70
2022-11-29T03:06:20.858Z,4.72
2022-11-29T03:11:34.893Z,4.61
2022-11-29T03:16:46.415Z,4.57
2022-11-29T03:22:02.503Z,4.67
2022-11-29T03:27:15.398Z,4.59
2022-11-29T03:32:25.911Z,4.59
2022-11-29T03:37:46.317Z,4.51
2022-11-29T03:42:56.285Z,4.44
2022-11-29T03:48:08.035Z,4.46
2022-11-29T03:53:23.411Z,4.43
2022-11-29T03:58:45.353Z,4.37
2022-11-29T04:04:21.698Z,4.34
2022-11-29T04:09:43.374Z,4.36
2022-11-29T04:15:16.166Z,4.38
2022-11-29T04:20:53.633Z,4.31
2022-11-29T04:26:17.177Z,4.30
2022-11-29T04:31:38.090Z,4.24
2022-11-29T04:37:11.212Z,4.28
2022-11-29T04:42:40.433Z,4.26
2022-11-29T04:48:04.080Z,4.24
2022-11-29T04:53:31.656Z,4.20
2022-11-29T04:58:46.545Z,4.16
2022-11-29T05:03:58.301Z,4.20
2022-11-29T05:09:12.564Z,4.17
2022-11-29T05:14:31.395Z,4.15
2022-11-29T05:19:58.679Z,4.20
2022-11-29T05:25:20.438Z,4.23
2022-11-29T05:30:40.165Z,4.10
2022-11-29T05:35:55.326Z,4.14
2022-11-29T05:41:12.280Z,4.13
2022-11-29T05:46:25.903Z,4.09
2022-11-29T05:51:42.133Z,4.08
2022-11-29T05:56:58.612Z,4.04
2022-11-29T06:02:23.342Z,3.95
2022-11-29T06:07:34.312Z,3.91
2022-11-29T06:12:40.394Z,3.83
2022-11-29T06:18:18.099Z,3.92
2022-11-29T06:23:59.501Z,3.93
2022-11-29T06:29:23.821Z,3.86
2022-11-29T06:34:38.597Z,3.87
2022-11-29T06:39:44.200Z,3.74
2022-11-29T06:44:52.019Z,3.79
2022-11-29T06:50:05.668Z,3.86
2022-11-29T06:55:18.148Z,3.91
2022-11-29T07:00:27.883Z,3.81
2022-11-29T07:05:37.586Z,3.92
2022-11-29T07:10:46.673Z,3.92
2022-11-29T07:16:01.405Z,4.01
2022-11-29T07:21:38.113Z,3.86
2022-11-29T07:26:56.517Z,4.01
2022-11-29T07:32:13.028Z,3.98
2022-11-29T07:37:31.750Z,3.96
2022-11-29T07:42:48.767Z,4.05
2022-11-29T07:47:54.799Z,4.07
2022-11-29T07:53:04.273Z,4.09
2022-11-29T07:58:09.732Z,4.10
2022-11-29T08:03:16.048Z,4.17
2022-11-29T08:08:25.113Z,4.21
2022-11-29T08:13:31.548Z,4.24
2022-11-29T08:18:39.120Z,4.20
2022-11-29T08:23:46.940Z,4.28
2022-11-29T08:28:57.359Z,4.37
2022-11-29T08:34:02.827Z,4.43
2022-11-29T08:39:11.077Z,4.42
2022-11-29T08:44:16.260Z,4.45
2022-11-29T08:49:23.091Z,4.52
2022-11-29T08:54:33.044Z,4.56
2022-11-29T08:59:38.492Z,4.52
2022-11-29T09:04:57.802Z,4.66
2022-11-29T09:10:12.276Z,4.70
2022-11-29T09:15:17.351Z,4.69
2022-11-29T09:20:22.313Z,4.65
2022-11-29T09:25:32.490Z,4.86
2022-11-29T09:30:38.228Z,4.91
2022-11-29T09:35:43.739Z,4.81
2022-11-29T09:40:56.116Z,4.87
2022-11-29T09:46:08.640Z,5.00
2022-11-29T09:51:26.226Z,5.28
2022-11-29T09:56:40.356Z,5.19
2022-11-29T10:02:04.658Z,5.30
2022-11-29T10:07:22.687Z,5.32
2022-11-29T10:12:38.886Z,5.24
2022-11-29T10:17:51.808Z,5.30
2022-11-29T10:23:02.118Z,5.27
2022-11-29T10:28:16.366Z,5.19
2022-11-29T10:33:25.578Z,5.22
2022-11-29T10:38:31.949Z,5.23
2022-11-29T10:43:48.161Z,5.37
2022-11-29T10:48:53.324Z,5.43
2022-11-29T10:53:59.587Z,5.21
2022-11-29T10:59:09.116Z,5.24
2022-11-29T11:04:20.135Z,5.18
2022-11-29T11:09:33.338Z,5.13
2022-11-29T11:14:45.657Z,5.23
2022-11-29T11:20:00.954Z,5.24
2022-11-29T11:25:08.842Z,5.30
2022-11-29T11:30:29.452Z,5.18
2022-11-29T11:35:37.476Z,5.31
2022-11-29T11:40:53.608Z,5.27
2022-11-29T11:46:06.874Z,5.32
2022-11-29T11:51:25.675Z,5.35
2022-11-29T11:56:38.027Z,5.37
2022-11-29T12:01:45.996Z,5.39
2022-11-29T12:06:56.212Z,5.58
2022-11-29T12:12:11.785Z,5.65
2022-11-29T12:17:33.826Z,5.55
2022-11-29T12:22:48.308Z,5.63
2022-11-29T12:27:55.547Z,5.62
2022-11-29T12:33:20.126Z,5.64
2022-11-29T12:38:45.173Z,5.58
2022-11-29T12:44:05.149Z,5.63
2022-11-29T12:49:22.743Z,5.49
2022-11-29T12:54:48.052Z,5.44
2022-11-29T13:00:14.709Z,5.28
2022-11-29T13:05:37.620Z,5.46
2022-11-29T13:11:01.796Z,5.39
2022-11-29T13:16:18.940Z,5.38
2022-11-29T13:21:35.876Z,5.34
2022-11-29T13:26:45.689Z,5.31
2022-11-29T13:32:02.643Z,5.29
2022-11-29T13:37:25.209Z,5.32
2022-11-29T13:42:49.805Z,5.41
2022-11-29T13:47:57.610Z,5.45
2022-11-29T13:53:16.003Z,5.31
2022-11-29T13:58:38.628Z,5.32
2022-11-29T14:03:45.208Z,5.32
2022-11-29T14:09:36.794Z,5.19
2022-11-29T14:14:55.674Z,5.20
2022-11-29T14:20:54.223Z,5.21
2022-11-29T14:26:28.805Z,5.13
2022-11-29T14:31:58.726Z,5.13
2022-11-29T14:37:20.162Z,5.09
2022-11-29T14:42:28.606Z,5.08
2022-11-29T14:47:42.334Z,5.03
2022-11-29T14:52:56.140Z,5.00
2022-11-29T14:58:19.678Z,4.98
2022-11-29T15:03:35.147Z,4.85
2022-11-29T15:08:51.869Z,4.89
2022-11-29T15:14:04.282Z,4.88
2022-11-29T15:19:39.991Z,4.96
2022-11-29T15:24:59.518Z,4.78
2022-11-29T15:30:23.633Z,4.79
2022-11-29T15:35:34.427Z,4.71
2022-11-29T15:40:48.200Z,4.71
2022-11-29T15:45:57.000Z,4.66
2022-11-29T15:51:08.406Z,4.62
2022-11-29T15:56:20.569Z,4.53
2022-11-29T16:01:29.934Z,4.54
2022-11-29T16:06:43.849Z,4.62
2022-11-29T16:11:51.140Z,4.60
2022-11-29T16:16:58.880Z,4.60
2022-11-29T16:22:16.521Z,4.54
2022-11-29T16:27:25.550Z,4.52
2022-11-29T16:32:33.655Z,4.57
2022-11-29T16:37:56.167Z,4.51
2022-11-29T16:43:43.003Z,4.55
2022-11-29T16:48:56.233Z,4.52
2022-11-29T16:54:23.535Z,4.60
2022-11-29T16:59:30.180Z,4.64
2022-11-29T17:04:37.959Z,4.52
2022-11-29T17:09:43.042Z,4.58
2022-11-29T17:14:48.789Z,4.65
2022-11-29T17:20:02.375Z,4.46
2022-11-29T17:25:10.386Z,4.59
2022-11-29T17:30:18.506Z,4.58
2022-11-29T17:35:28.587Z,4.50
2022-11-29T17:40:36.068Z,4.67
2022-11-29T17:45:42.992Z,4.59
2022-11-29T17:50:50.647Z,4.60
2022-11-29T17:56:04.236Z,4.64
2022-11-29T18:01:12.028Z,4.54
2022-11-29T18:06:22.325Z,4.55
2022-11-29T18:11:30.285Z,4.56
2022-11-29T18:16:37.478Z,4.54
2022-11-29T18:21:45.741Z,4.56
2022-11-29T18:26:51.404Z,4.48
2022-11-29T18:32:02.067Z,4.48
2022-11-29T18:37:15.432Z,4.56
2022-11-29T18:42:25.774Z,4.56
2022-11-29T18:47:33.066Z,4.46
2022-11-29T18:52:40.958Z,4.40
2022-11-29T18:57:46.514Z,4.45
2022-11-29T19:02:51.615Z,4.44
2022-11-29T19:08:02.813Z,4.47
2022-11-29T19:13:09.179Z,4.54
2022-11-29T19:18:16.418Z,4.42
2022-11-29T19:23:25.490Z,4.50
2022-11-29T19:28:34.814Z,4.51
2022-11-29T19:33:44.947Z,4.43
2022-11-29T19:38:55.783Z,4.45
2022-11-29T19:44:03.719Z,4.50
2022-11-29T19:49:11.631Z,4.40
2022-11-29T19:54:19.667Z,4.39
2022-11-29T19:59:24.896Z,4.35
2022-11-29T20:04:30.556Z,4.27
2022-11-29T20:09:39.074Z,4.31
2022-11-29T20:14:45.527Z,4.24
2022-11-29T20:19:52.376Z,4.19
2022-11-29T20:25:03.080Z,4.22
2022-11-29T20:30:13.508Z,4.23
2022-11-29T20:35:20.280Z,4.21
2022-11-29T20:40:42.141Z,4.24
2022-11-29T20:45:48.318Z,4.05
2022-11-29T20:51:00.640Z,4.04
2022-11-29T20:56:11.164Z,3.99
2022-11-29T21:01:16.846Z,4.02
2022-11-29T21:06:22.354Z,4.08
2022-11-29T21:11:31.929Z,3.98
2022-11-29T21:16:43.319Z,4.00
2022-11-29T21:22:00.027Z,3.98
2022-11-29T21:27:12.548Z,3.96
2022-11-29T21:32:24.535Z,3.90
2022-11-29T21:37:33.238Z,4.02
2022-11-29T21:42:40.841Z,3.95
2022-11-29T21:47:46.192Z,4.05
2022-11-29T21:52:54.250Z,4.04
2022-11-29T21:58:01.801Z,3.92
2022-11-29T22:03:14.321Z,4.00
2022-11-29T22:08:19.335Z,3.95
2022-11-29T22:13:26.918Z,3.77
2022-11-29T22:18:31.916Z,3.90
2022-11-29T22:23:37.814Z,3.98
2022-11-29T22:28:51.297Z,3.80
2022-11-29T22:34:01.600Z,3.94
2022-11-29T22:39:07.337Z,3.91
2022-11-29T22:44:14.899Z,3.94
2022-11-29T22:49:19.798Z,4.00
2022-11-29T22:54:24.713Z,3.86
2022-11-29T22:59:33.983Z,3.88
2022-11-29T23:04:38.980Z,3.89
2022-11-29T23:09:44.324Z,3.84
2022-11-29T23:14:56.381Z,3.88
2022-11-29T23:20:01.933Z,3.81
2022-11-29T23:25:07.975Z,3.80
2022-11-29T23:30:18.177Z,3.83
2022-11-29T23:35:23.111Z,3.99
2022-11-29T23:40:27.979Z,3.78
2022-11-29T23:45:35.638Z,3.82
2022-11-29T23:50:40.616Z,3.83
2022-11-29T23:55:47.720Z,3.78
